Grand Canyon, AZ (86023)

2:01 AM MST on April 25, 2017 (GMT -0700)
Grand Canyon Village | | Change Station
Active Advisory: Wind Advisory

Elev 6991 ft 36.05 °N, 112.12 °W | Updated 1 minute ago

Overcast
Overcast
47.2 °F
Feels Like 47 °F
N
1.0
Wind Variable Wind from WNW
Gusts 3.0 mph

Today
High -- | Low -- °F
--% Chance of Precip.
Yesterday
High -- | Low -- °F
Precip. -- in
Pressure 29.52 in
Visibility 10.0 miles
Clouds Mostly Cloudy 10000 ft
Windchill 47 °F
Dew Point 28 °F
Humidity 46%
Rainfall 0.00 in
Snow Depth Not available.
5:42 AM 7:11 PM
Waning Crescent, 2% visible
METAR KGCN 250854Z AUTO 23006KT 10SM BKN100 08/M02 A2976 RMK AO2 SLP997 T00831017 58013 TSNO
Pressure 29.52 in
Visibility 10.0 miles
Clouds Mostly Cloudy 10000 ft
Windchill 47 °F
Dew Point 28 °F
Humidity 46%
Rainfall 0.00 in
Snow Depth Not available.
5:42 AM 7:11 PM
Waning Crescent, 2% visible
METAR KGCN 250854Z AUTO 23006KT 10SM BKN100 08/M02 A2976 RMK AO2 SLP997 T00831017 58013 TSNO

Get Your Daily Forecast Email!

Thanks for signing up!

Be on the lookout for a verification email in your inbox.

You'll start receiving severe weather alerts in your inbox..

×

10-Day Weather Forecast

Almanac

Astronomy

Apr. 25, 2017 Rise Set
Actual Time
Civil Twilight
Nautical Twilight
Astronomical Twilight
Moon
Length of Visible Light
Length of Day
Tomorrow will be .
, % of the Moon is Illuminated

Today's Extremes

State Highs State Lows

Community

WunderPhotos

WunderBlog® & News

Nearby

Air Quality

  Air Quality AQ Index Pollutant
Not available.

Snow Depth

Station Depth Elevation

Earthquake Activity

City Distance Mag. Time & Date
Minimum magnitude displayed is 2.5.

Coastal Water Temperatures

Place Temperature

Stations

Nearby Weather Stations

Station Location Temp. Windchill Dew Point Humidity Wind Precip. Elev Updated Type
                   

Watches & Warnings

Wind Advisory
Issued: 9:19 PM MDT Apr. 24, 2017 – National Weather Service

... Wind Advisory in effect from noon to 8 PM MST Tuesday...

The National Weather Service in Flagstaff has issued a Wind
Advisory, which is in effect from noon to 8 PM MST Tuesday.

* Timing... gusty west to northwest winds will increase late
morning and early afternoon. The winds will continue into
Tuesday evening.

* Winds... west to northwest winds 20 to 30 mph with gusts to
between 40 and 45 mph.

* Impacts... winds this strong can make driving difficult...
especially for high profile vehicles. Consider securing loose
belongings on your property.

Precautionary/preparedness actions...

A Wind Advisory means that sustained winds of 30 to 39 mph... or
gusts from 40 to 57 mph... are expected. Winds this strong can
make driving difficult... especially for high profile vehicles.
Consider securing loose belongings on your property. Additional
weather information is on the web at www.Weather.Gov/Flagstaff.